Time;durP1;ratioP1;P1;durP2;ratioP2;P2;SDS_P1;SDS_P2;PMS_P1;PMS_P2;Temp;Humidity;BMP_temperature;BMP_pressure;BME280_temperature;BME280_humidity;BME280_pressure;Samples;Min_cycle;Max_cycle;Signal;HPM_P1;HPM_P2
2023/02/11 00:00:48;;;;;;;60.55;26.02;;;;;;;-5.26;75.68;101603.02;1722026;83;21194;-83
2023/02/11 00:03:53;;;;;;;62.33;26.87;;;;;;;-5.23;75.68;101593.09;1721445;83;21197;-82
2023/02/11 00:07:00;;;;;;;56.68;27.07;;;;;;;-5.27;75.81;101582.56;1720787;83;21209;-83
2023/02/11 00:10:07;;;;;;;45.58;23.80;;;;;;;-5.21;75.81;101586.41;1721926;83;21182;-82
2023/02/11 00:13:12;;;;;;;43.52;23.02;;;;;;;-5.19;75.81;101576.09;1721604;83;21891;-84
2023/02/11 00:16:23;;;;;;;50.28;22.82;;;;;;;-5.30;75.50;101575.55;1722226;83;21194;-83
2023/02/11 00:19:29;;;;;;;47.27;23.55;;;;;;;-5.05;74.60;101567.67;1722191;83;21174;-83
2023/02/11 00:22:35;;;;;;;49.93;25.75;;;;;;;-5.44;75.23;101558.61;1720728;83;21737;-83
2023/02/11 00:25:41;;;;;;;50.12;24.50;;;;;;;-5.49;75.69;101555.20;1722167;83;21320;-84
2023/02/11 00:28:48;;;;;;;47.03;25.05;;;;;;;-5.51;75.62;101567.69;1721996;83;21254;-85
2023/02/11 00:31:54;;;;;;;54.40;25.10;;;;;;;-5.64;75.48;101562.77;1722083;83;21186;-84
2023/02/11 00:34:59;;;;;;;50.95;25.75;;;;;;;-5.68;75.61;101561.97;1720719;83;21210;-81
2023/02/11 00:38:05;;;;;;;51.85;26.10;;;;;;;-5.63;75.87;101560.05;1714292;83;21205;-83
2023/02/11 00:41:12;;;;;;;57.50;25.50;;;;;;;-5.56;75.78;101554.95;1706339;84;21355;-83
2023/02/11 00:44:11;;;;;;;55.05;27.82;;;;;;;-5.56;75.78;101554.95;1706898;84;21771;-83
2023/02/11 00:47:19;;;;;;;59.65;28.42;;;;;;;-5.55;75.83;101555.39;1707708;84;21211;-83
2023/02/11 00:50:25;;;;;;;52.50;27.80;;;;;;;-5.56;75.95;101544.28;1707744;84;21200;-83
2023/02/11 00:53:31;;;;;;;59.80;27.27;;;;;;;-5.49;75.76;101536.53;1707394;84;21276;-84
2023/02/11 00:56:37;;;;;;;56.83;27.50;;;;;;;-5.58;76.08;101531.93;1707692;84;21316;-83
2023/02/11 00:59:43;;;;;;;57.05;28.07;;;;;;;-5.63;75.98;101536.52;1707624;84;21193;-83
2023/02/11 01:07:01;;;;;;;51.13;24.52;;;;;;;-5.64;76.23;101527.66;1707073;84;21236;-82
2023/02/11 01:10:14;;;;;;;50.30;24.90;;;;;;;-5.58;76.52;101534.59;1706646;83;21307;-83
2023/02/11 01:13:33;;;;;;;57.03;27.58;;;;;;;-5.58;76.47;101535.93;1877339;76;22197;-83
2023/02/11 01:20:48;;;;;;;52.53;21.07;;;;;;;-5.71;76.14;101538.06;1850059;77;21116;-83
2023/02/11 01:23:54;;;;;;;53.02;25.12;;;;;;;-5.84;76.16;101537.98;1781461;80;21688;-83
2023/02/11 01:26:59;;;;;;;58.02;26.10;;;;;;;-5.97;76.27;101535.70;1813033;79;21208;-84
2023/02/11 01:30:06;;;;;;;55.83;26.27;;;;;;;-5.93;76.52;101540.04;1780097;80;21224;-83
2023/02/11 01:33:13;;;;;;;53.63;26.75;;;;;;;-5.88;76.87;101537.64;1779968;80;21217;-83
2023/02/11 01:36:19;;;;;;;51.33;25.05;;;;;;;-5.91;77.14;101542.16;1781408;80;21185;-83
2023/02/11 01:39:25;;;;;;;58.33;27.17;;;;;;;-5.94;77.15;101538.27;1781455;80;21220;-82
2023/02/11 01:42:31;;;;;;;58.87;28.17;;;;;;;-5.88;76.77;101541.21;1780718;80;21251;-83
2023/02/11 01:45:56;;;;;;;54.55;25.85;;;;;;;-5.92;76.68;101539.12;1779975;80;21216;-83
2023/02/11 01:49:19;;;;;;;71.55;32.88;;;;;;;-6.08;77.13;101539.09;1765853;80;21228;-83
2023/02/11 01:52:37;;;;;;;87.00;36.10;;;;;;;-6.04;77.00;101538.10;1780913;80;21217;-82
2023/02/11 01:59:11;;;;;;;55.35;23.67;;;;;;;-5.86;76.55;101527.84;1781468;80;21728;-83
2023/02/11 02:02:17;;;;;;;;;;;;;;;-5.85;76.56;101522.91;1783827;80;21767;-83
2023/02/11 02:05:39;;;;;;;59.27;25.27;;;;;;;-5.94;76.52;101523.61;1747020;82;20217;-82
2023/02/11 02:09:03;;;;;;;66.00;28.87;;;;;;;-6.02;76.77;101526.06;1753991;82;21188;-82
2023/02/11 02:12:10;;;;;;;55.70;24.02;;;;;;;-6.05;77.13;101524.83;1751210;82;21225;-83
2023/02/11 02:15:37;;;;;;;55.08;25.35;;;;;;;-6.03;77.09;101523.86;1803171;79;21204;-84
2023/02/11 02:19:00;;;;;;;61.37;25.70;;;;;;;-6.08;76.89;101520.45;1803196;79;21169;-82
2023/02/11 02:22:45;;;;;;;50.50;25.32;;;;;;;-6.03;76.95;101514.53;1803177;79;21181;-82
2023/02/11 02:26:20;;;;;;;55.98;24.43;;;;;;;-6.00;76.95;101512.26;1802671;79;21228;-83
2023/02/11 02:29:56;;;;;;;44.85;22.75;;;;;;;-6.06;76.94;101514.64;1802671;79;21165;-82
2023/02/11 02:33:22;;;;;;;61.30;27.27;;;;;;;-6.08;76.44;101515.13;1755138;79;21224;-83
2023/02/11 02:36:50;;;;;;;68.07;28.25;;;;;;;-6.20;76.36;101518.13;1801134;79;21192;-81
2023/02/11 02:39:56;;;;;;;52.75;25.40;;;;;;;-6.28;76.32;101515.66;1784197;79;21739;-83
2023/02/11 02:43:02;;;;;;;52.53;26.17;;;;;;;-6.29;76.04;101508.59;1801405;79;21188;-83
2023/02/11 02:46:31;;;;;;;53.15;23.45;;;;;;;-6.27;75.76;101515.20;1802771;79;21220;-84
2023/02/11 02:49:37;;;;;;;57.58;25.68;;;;;;;-6.34;75.82;101518.95;1801737;79;21217;-84
2023/02/11 02:52:58;;;;;;;48.70;24.55;;;;;;;-6.47;75.74;101521.05;1801285;79;21264;-84
2023/02/11 02:56:20;;;;;;;55.08;24.63;;;;;;;-6.51;75.38;101526.02;1802765;79;21180;-83
2023/02/11 02:59:47;;;;;;;53.13;25.37;;;;;;;-6.58;75.08;101525.31;1801331;79;21263;-83
2023/02/11 03:03:37;;;;;;;60.33;25.50;;;;;;;-6.59;75.06;101522.20;1802448;79;21216;-84
2023/02/11 03:06:56;;;;;;;60.65;26.77;;;;;;;-6.63;75.25;101522.32;1744508;82;21176;-83
2023/02/11 03:10:12;;;;;;;50.48;22.85;;;;;;;-6.58;75.43;101526.64;1744612;82;21179;-83
2023/02/11 03:13:18;;;;;;;77.25;30.90;;;;;;;-6.38;75.51;101526.59;1802290;79;21280;-83
2023/02/11 03:16:37;;;;;;;80.92;31.35;;;;;;;-6.36;75.53;101516.30;1809960;79;21817;-83
2023/02/11 03:19:46;;;;;;;73.05;29.20;;;;;;;-6.28;75.83;101510.79;1811324;79;21177;-83
2023/02/11 03:23:02;;;;;;;65.70;28.55;;;;;;;-6.23;75.54;101508.42;1811905;79;21759;-83
2023/02/11 03:26:26;;;;;;;61.80;27.20;;;;;;;-6.20;75.13;101512.80;1811322;79;21153;-83
2023/02/11 03:29:53;;;;;;;62.33;26.87;;;;;;;-6.15;74.94;101516.22;1810416;79;21205;-82
2023/02/11 03:32:58;;;;;;;55.52;27.02;;;;;;;-6.18;74.69;101514.95;1809729;79;21208;-84
2023/02/11 03:35:55;;;;;;;62.10;28.35;;;;;;;-6.25;74.31;101509.39;1803262;79;21184;-82
2023/02/11 03:39:03;;;;;;;60.45;25.32;;;;;;;-6.31;74.15;101514.86;1809676;79;21208;-82
2023/02/11 03:42:11;;;;;;;56.98;25.92;;;;;;;-6.32;73.88;101515.31;1811310;79;21287;-82
2023/02/11 03:45:20;;;;;;;59.03;28.23;;;;;;;-6.34;73.83;101510.97;1810825;79;21216;-82
2023/02/11 03:49:04;;;;;;;44.83;20.75;;;;;;;-6.41;73.90;101510.69;1809912;79;21232;-83
2023/02/11 03:52:11;;;;;;;61.28;27.60;;;;;;;-6.48;74.01;101512.19;1723403;83;21215;-82
2023/02/11 03:55:20;;;;;;;66.22;26.80;;;;;;;-6.48;74.03;101506.86;1708576;84;21225;-84
2023/02/11 03:58:20;;;;;;;44.20;22.30;;;;;;;-6.48;73.85;101501.54;1723148;83;21160;-84
2023/02/11 04:01:13;;;;;;;55.83;27.13;;;;;;;-6.50;73.51;101507.80;1709393;84;21323;-84
2023/02/11 04:04:18;;;;;;;;;;;;;;;-6.56;73.44;101503.51;1711566;84;21212;-84
2023/02/11 04:07:26;;;;;;;94.37;38.73;;;;;;;-6.58;73.38;101500.48;1708879;84;20188;-83
2023/02/11 04:10:32;;;;;;;86.97;36.08;;;;;;;-6.63;73.33;101488.63;1709779;84;21224;-84
2023/02/11 04:13:40;;;;;;;67.80;31.17;;;;;;;-6.71;73.54;101499.45;1709930;84;21264;-84
2023/02/11 04:16:46;;;;;;;59.67;29.32;;;;;;;-6.67;73.71;101495.39;1709301;84;21181;-82
2023/02/11 04:19:53;;;;;;;57.90;29.35;;;;;;;-6.68;73.81;101501.14;1706968;83;21247;-84
2023/02/11 04:22:59;;;;;;;64.30;29.05;;;;;;;-6.63;73.85;101493.05;1710005;84;21717;-82
2023/02/11 04:26:06;;;;;;;59.45;27.93;;;;;;;-6.68;74.01;101493.16;1709685;84;21220;-82
2023/02/11 04:29:12;;;;;;;68.67;27.35;;;;;;;-6.63;73.82;101495.28;1710144;84;21620;-85
2023/02/11 04:32:19;;;;;;;51.42;25.95;;;;;;;-6.60;73.73;101500.50;1708760;84;21223;-83
2023/02/11 04:35:24;;;;;;;57.60;25.32;;;;;;;-6.54;73.59;101496.80;1708518;84;21209;-83
2023/02/11 04:38:30;;;;;;;49.85;23.85;;;;;;;-6.55;73.33;101485.75;1709759;84;21769;-83
2023/02/11 04:41:36;;;;;;;54.80;24.25;;;;;;;-6.59;73.32;101491.60;1709202;84;21216;-83
2023/02/11 04:44:42;;;;;;;51.00;23.50;;;;;;;-6.56;73.13;101482.22;1709612;84;21185;-85
2023/02/11 04:47:49;;;;;;;54.85;23.25;;;;;;;-6.63;72.78;101487.72;1709940;84;21207;-85
2023/02/11 04:50:56;;;;;;;47.23;23.27;;;;;;;-6.72;72.77;101487.06;1713613;82;21194;-83
2023/02/11 04:53:54;;;;;;;51.60;24.07;;;;;;;-6.72;72.82;101486.20;1719720;83;21182;-82
2023/02/11 04:56:47;;;;;;;51.75;24.95;;;;;;;-6.68;72.70;101478.52;1720187;83;21201;-83
2023/02/11 04:59:53;;;;;;;51.37;23.65;;;;;;;-6.64;72.75;101482.86;1721067;83;21186;-83
2023/02/11 05:03:00;;;;;;;60.63;25.43;;;;;;;-6.61;72.79;101485.45;1721024;83;21174;-83
2023/02/11 05:06:06;;;;;;;57.05;26.30;;;;;;;-6.52;72.95;101485.69;1719855;83;21217;-85
2023/02/11 05:09:12;;;;;;;65.37;27.67;;;;;;;-6.51;73.03;101480.77;1720991;83;21162;-83
2023/02/11 05:12:20;;;;;;;51.23;23.73;;;;;;;-6.39;72.79;101483.59;1720107;83;21249;-85
2023/02/11 05:15:27;;;;;;;60.83;26.80;;;;;;;-6.69;72.95;101486.97;1720829;83;21304;-85
2023/02/11 05:18:33;;;;;;;56.25;27.82;;;;;;;-6.73;73.03;101494.64;1721128;83;21206;-85
2023/02/11 05:21:40;;;;;;;64.05;27.65;;;;;;;-6.81;73.29;101495.27;1720699;83;21186;-84
2023/02/11 05:24:49;;;;;;;61.40;27.32;;;;;;;-6.70;73.63;101496.33;1720800;83;21160;-85
2023/02/11 05:27:54;;;;;;;57.83;25.90;;;;;;;-6.66;73.61;101491.36;1721050;83;21150;-85
2023/02/11 05:31:00;;;;;;;57.90;26.10;;;;;;;-6.54;73.60;101483.50;1721362;83;21201;-84
2023/02/11 05:34:07;;;;;;;58.48;26.77;;;;;;;-6.44;73.64;101487.23;1720711;82;21150;-84
2023/02/11 05:37:13;;;;;;;53.15;25.25;;;;;;;-6.32;73.72;101485.16;1721111;83;21206;-83
2023/02/11 05:40:19;;;;;;;49.58;24.30;;;;;;;-6.27;73.67;101487.23;1721223;83;21202;-85
2023/02/11 05:43:26;;;;;;;55.40;26.10;;;;;;;-6.15;73.50;101483.38;1721003;83;21150;-83
2023/02/11 05:46:32;;;;;;;45.48;24.02;;;;;;;-6.15;73.56;101483.38;1719961;83;21209;-83
2023/02/11 05:49:38;;;;;;;50.50;24.85;;;;;;;-6.11;73.75;101482.39;1720522;83;21288;-84
2023/02/11 05:52:46;;;;;;;50.98;24.23;;;;;;;-6.08;74.01;101485.81;1730039;82;21217;-84
2023/02/11 05:55:52;;;;;;;41.83;21.48;;;;;;;-6.02;74.28;101487.44;1748606;82;21729;-84
2023/02/11 05:58:59;;;;;;;48.15;22.82;;;;;;;-5.90;74.42;101484.41;1749321;82;21196;-83
2023/02/11 06:02:06;;;;;;;46.58;22.37;;;;;;;-5.78;74.35;101489.40;1748524;82;21725;-82
2023/02/11 06:05:14;;;;;;;40.63;21.15;;;;;;;-5.65;74.31;101483.23;1749519;82;21724;-83
2023/02/11 06:08:20;;;;;;;50.95;22.00;;;;;;;-5.53;74.43;101489.55;1749722;82;21200;-83
2023/02/11 06:11:25;;;;;;;50.30;22.10;;;;;;;-5.42;74.33;101477.22;1748764;82;21196;-84
2023/02/11 06:14:32;;;;;;;45.33;21.68;;;;;;;-5.33;74.47;101476.07;1748113;82;21220;-84
2023/02/11 06:17:38;;;;;;;35.60;18.85;;;;;;;-5.25;74.62;101484.72;1747840;82;21208;-84
2023/02/11 06:20:44;;;;;;;42.08;20.32;;;;;;;-5.20;74.79;101482.31;1748364;82;21204;-84
2023/02/11 06:23:50;;;;;;;46.92;20.97;;;;;;;-5.14;74.87;101477.23;1733007;82;21239;-82
2023/02/11 06:26:57;;;;;;;41.10;19.57;;;;;;;-5.07;75.06;101476.14;1748568;82;21207;-84
2023/02/11 06:30:03;;;;;;;45.20;20.02;;;;;;;-4.92;74.96;101483.65;1749555;82;21172;-82
2023/02/11 06:33:09;;;;;;;46.23;22.30;;;;;;;-4.76;74.71;101479.14;1749235;82;21770;-82
2023/02/11 06:36:24;;;;;;;47.70;22.02;;;;;;;-4.72;74.66;101481.66;1749128;82;21748;-84
2023/02/11 06:39:30;;;;;;;49.80;21.07;;;;;;;-4.65;74.72;101482.34;1750013;82;21267;-84
2023/02/11 06:42:37;;;;;;;42.93;19.32;;;;;;;-4.55;74.81;101483.78;1749666;82;21797;-82
2023/02/11 06:45:43;;;;;;;47.03;20.08;;;;;;;-4.47;74.80;101485.73;1749889;82;21196;-83
2023/02/11 06:48:49;;;;;;;48.00;22.73;;;;;;;-4.39;74.88;101472.09;1749969;82;21169;-82
2023/02/11 06:51:56;;;;;;;48.50;22.10;;;;;;;-4.32;74.76;101466.97;1749235;82;21764;-82
2023/02/11 06:55:01;;;;;;;49.85;23.25;;;;;;;-4.24;74.64;101463.55;1742693;80;21228;-82
2023/02/11 06:58:08;;;;;;;49.18;22.77;;;;;;;-4.11;74.66;101459.98;1743036;82;21765;-82
2023/02/11 07:01:18;;;;;;;45.92;22.87;;;;;;;-3.92;74.68;101459.72;1744456;82;21204;-83
2023/02/11 07:04:22;;;;;;;;;;;;;;;-3.74;74.58;101463.98;1746932;82;21844;-84
2023/02/11 07:07:27;;;;;;;48.40;21.70;;;;;;;-3.59;74.18;101460.73;1744036;82;20277;-83
2023/02/11 07:10:32;;;;;;;36.17;18.90;;;;;;;-3.43;73.84;101452.54;1743176;82;21712;-82
2023/02/11 07:13:38;;;;;;;39.13;21.65;;;;;;;-3.30;73.38;101442.20;1742963;82;21180;-83
2023/02/11 07:16:42;;;;;;;39.35;20.62;;;;;;;-3.17;73.12;101438.11;1724780;82;21232;-82
2023/02/11 07:19:35;;;;;;;41.13;18.75;;;;;;;-3.09;72.82;101437.34;1743946;82;21177;-84
2023/02/11 07:22:21;;;;;;;47.33;23.92;;;;;;;-2.99;72.77;101433.83;1744056;82;21645;-82
2023/02/11 07:25:14;;;;;;;51.63;23.05;;;;;;;-2.88;72.52;101431.57;1744295;82;21173;-84
2023/02/11 07:28:21;;;;;;;45.60;22.80;;;;;;;-2.71;72.42;101428.67;1742441;82;21157;-82
2023/02/11 07:31:32;;;;;;;50.40;24.85;;;;;;;-2.69;72.69;101430.80;1744076;82;21216;-83
2023/02/11 07:34:39;;;;;;;45.43;24.43;;;;;;;-2.50;72.26;101423.73;1743733;82;21173;-82
2023/02/11 07:37:46;;;;;;;44.63;22.22;;;;;;;-2.32;72.45;101428.77;1743401;82;21177;-84
2023/02/11 07:40:52;;;;;;;57.35;23.05;;;;;;;-2.16;72.25;101425.83;1743784;82;21209;-84
2023/02/11 07:43:53;;;;;;;44.67;22.75;;;;;;;-2.05;71.60;101413.28;1744331;82;21744;-85
2023/02/11 07:46:59;;;;;;;52.75;23.50;;;;;;;-1.96;71.85;101416.88;1743452;82;21208;-84
2023/02/11 07:50:08;;;;;;;43.48;23.18;;;;;;;-1.74;71.65;101414.10;1744481;82;21734;-83
2023/02/11 07:53:15;;;;;;;38.80;22.13;;;;;;;-1.53;71.31;101409.53;1744418;82;21860;-82
2023/02/11 07:56:21;;;;;;;38.17;21.62;;;;;;;-1.43;71.12;101406.80;1702135;83;21212;-82
2023/02/11 07:59:27;;;;;;;38.73;22.15;;;;;;;-1.23;70.69;101407.18;1689055;85;21184;-83
2023/02/11 08:02:32;;;;;;;44.08;23.92;;;;;;;-1.13;70.69;101408.95;1678877;85;21196;-84
2023/02/11 08:05:38;;;;;;;37.17;21.12;;;;;;;-0.98;70.54;101408.22;1686604;85;21762;-84
2023/02/11 08:08:44;;;;;;;39.70;22.65;;;;;;;-0.91;70.40;101402.92;1660312;86;21765;-85
2023/02/11 08:11:51;;;;;;;39.73;21.85;;;;;;;-0.81;70.59;101410.91;1678819;85;21809;-83
2023/02/11 08:14:57;;;;;;;39.73;22.40;;;;;;;-0.67;70.25;101408.01;1686037;85;21165;-84
2023/02/11 08:18:02;;;;;;;43.68;23.98;;;;;;;-0.60;69.61;101400.05;1661097;86;21220;-82
2023/02/11 08:21:16;;;;;;;45.08;22.15;;;;;;;-0.49;69.03;101404.38;1678607;85;21782;-84
2023/02/11 08:24:22;;;;;;;41.83;23.45;;;;;;;-0.56;68.92;101402.98;1686627;85;21216;-84
2023/02/11 08:27:28;;;;;;;43.85;24.43;;;;;;;-0.49;68.61;101408.41;1660112;86;21212;-84
2023/02/11 08:30:34;;;;;;;50.23;23.85;;;;;;;-0.36;68.39;101396.09;1678864;85;21178;-82
2023/02/11 08:33:39;;;;;;;49.20;23.70;;;;;;;-0.27;68.63;101392.92;1686861;85;21220;-83
2023/02/11 08:36:46;;;;;;;52.05;25.85;;;;;;;-0.10;68.04;101395.17;1661430;85;21224;-83
2023/02/11 08:39:51;;;;;;;36.70;21.70;;;;;;;-0.38;68.68;101384.52;1678781;85;21802;-81
2023/02/11 08:42:50;;;;;;;46.02;23.95;;;;;;;0.05;67.07;101375.98;1686905;85;21177;-84
2023/02/11 08:45:44;;;;;;;47.80;25.27;;;;;;;-0.05;65.94;101376.97;1661115;86;21287;-82
2023/02/11 08:48:50;;;;;;;49.93;26.53;;;;;;;-0.08;66.18;101375.33;1678890;85;21201;-83
2023/02/11 08:52:01;;;;;;;40.70;23.87;;;;;;;0.02;65.78;101369.45;1686751;85;21205;-84
2023/02/11 08:55:03;;;;;;;39.40;21.42;;;;;;;0.13;65.36;101366.55;1662811;83;21206;-83
2023/02/11 08:58:08;;;;;;;45.78;24.40;;;;;;;0.29;64.64;101369.77;1749923;82;21192;-83
2023/02/11 09:01:22;;;;;;;44.58;23.50;;;;;;;0.39;64.43;101361.58;1749824;82;21201;-83
2023/02/11 09:04:28;;;;;;;46.80;24.77;;;;;;;0.50;64.11;101361.83;1749102;82;21200;-84
2023/02/11 09:07:35;;;;;;;45.63;25.97;;;;;;;0.52;64.17;101362.63;1749625;82;21184;-81
2023/02/11 09:10:40;;;;;;;45.60;24.90;;;;;;;0.56;64.06;101360.61;1749636;82;21177;-83
2023/02/11 09:13:48;;;;;;;47.90;23.40;;;;;;;0.61;63.49;101362.11;1749512;82;21721;-83
2023/02/11 09:16:56;;;;;;;42.85;24.25;;;;;;;0.61;63.79;101365.25;1748333;82;21908;-81
2023/02/11 09:20:02;;;;;;;39.65;22.50;;;;;;;0.62;63.83;101367.88;1749502;82;21181;-81
2023/02/11 09:23:09;;;;;;;53.50;22.07;;;;;;;0.63;63.46;101354.80;1749377;82;21169;-82
2023/02/11 09:26:20;;;;;;;43.50;23.75;;;;;;;0.82;62.31;101350.58;1748170;81;21196;-83
2023/02/11 09:29:26;;;;;;;43.30;22.27;;;;;;;0.89;61.80;101355.11;1748286;82;21172;-84
2023/02/11 09:32:31;;;;;;;42.65;24.23;;;;;;;0.66;62.31;101341.17;1748317;82;22085;-81
2023/02/11 09:35:39;;;;;;;43.25;24.12;;;;;;;0.55;63.38;101336.86;1749666;82;21204;-83
2023/02/11 09:38:45;;;;;;;45.80;22.20;;;;;;;0.60;63.55;101326.69;1747618;82;21216;-83
2023/02/11 09:42:09;;;;;;;40.25;24.10;;;;;;;0.69;63.33;101314.05;1748083;81;21199;-81
2023/02/11 09:45:25;;;;;;;39.88;22.98;;;;;;;0.67;63.78;101313.28;1749323;82;21169;-83
2023/02/11 09:48:30;;;;;;;42.67;24.18;;;;;;;0.76;63.67;101307.36;1749411;82;21161;-83
2023/02/11 09:51:54;;;;;;;44.75;23.62;;;;;;;0.79;63.59;101298.22;1749623;82;21248;-83
2023/02/11 09:55:13;;;;;;;49.23;25.27;;;;;;;0.87;63.53;101295.09;1749242;82;21191;-83
2023/02/11 09:58:41;;;;;;;45.48;24.72;;;;;;;0.99;63.75;101301.98;1743100;82;21196;-83
2023/02/11 10:02:21;;;;;;;36.48;22.20;;;;;;;1.24;63.15;101292.42;1743543;82;21196;-81
2023/02/11 10:05:46;;;;;;;45.40;25.77;;;;;;;1.57;62.72;101290.84;1744407;82;21169;-81
2023/02/11 10:09:05;;;;;;;46.05;26.30;;;;;;;1.63;63.41;101297.67;1744145;82;21331;-81
2023/02/11 10:12:50;;;;;;;40.55;25.27;;;;;;;1.94;63.06;101284.01;1743280;82;21761;-83
2023/02/11 10:16:06;;;;;;;51.65;23.57;;;;;;;2.27;61.99;101283.67;1743814;82;21200;-81
2023/02/11 10:19:37;;;;;;;48.60;24.98;;;;;;;2.28;60.34;101285.41;1743816;82;21753;-83
2023/02/11 10:23:01;;;;;;;50.00;23.50;;;;;;;2.33;59.94;101274.30;1744329;82;21177;-81
2023/02/11 10:26:06;;;;;;;38.02;22.10;;;;;;;2.41;59.39;101272.47;1744450;82;21199;-83
2023/02/11 10:29:22;;;;;;;39.55;24.20;;;;;;;2.36;58.73;101277.30;1743034;82;21165;-83
2023/02/11 10:33:08;;;;;;;45.85;24.30;;;;;;;2.30;58.66;101272.66;1744479;82;21208;-83
2023/02/11 10:36:15;;;;;;;45.88;23.38;;;;;;;2.44;58.19;101258.74;1744408;82;21204;-81
2023/02/11 10:39:27;;;;;;;35.55;21.82;;;;;;;2.53;58.21;101255.44;1744431;82;21206;-83
2023/02/11 10:42:32;;;;;;;38.13;21.37;;;;;;;2.66;57.76;101253.66;1744405;82;21220;-81
2023/02/11 10:45:56;;;;;;;39.73;22.90;;;;;;;2.76;57.05;101252.06;1744393;82;21197;-81
2023/02/11 10:49:02;;;;;;;33.35;21.52;;;;;;;2.86;56.68;101250.09;1744616;82;21169;-81
2023/02/11 10:52:25;;;;;;;36.35;21.97;;;;;;;2.93;56.06;101239.27;1744259;82;21181;-83
2023/02/11 10:55:33;;;;;;;43.17;23.92;;;;;;;2.95;55.74;101234.11;1744584;82;21205;-81
2023/02/11 10:58:49;;;;;;;38.13;20.52;;;;;;;2.81;56.14;101226.95;1747353;82;21672;-81
2023/02/11 11:02:08;;;;;;;42.27;22.87;;;;;;;2.89;55.85;101229.63;1749686;82;21207;-83
2023/02/11 11:05:22;;;;;;;;;;;;;;;3.01;56.03;101220.66;1752173;82;21213;-81
2023/02/11 11:08:27;;;;;;;37.65;22.20;;;;;;;3.20;56.10;101210.33;1749524;82;20209;-82
2023/02/11 11:11:33;;;;;;;40.25;23.35;;;;;;;3.36;56.16;101207.41;1749315;82;21176;-83
2023/02/11 11:14:39;;;;;;;40.17;22.90;;;;;;;3.49;55.54;101206.92;1749278;82;21819;-81
2023/02/11 11:17:45;;;;;;;41.02;23.92;;;;;;;3.33;55.43;101199.49;1749573;82;21208;-81
2023/02/11 11:21:08;;;;;;;34.73;21.07;;;;;;;3.42;55.54;101199.34;1748481;82;21728;-83
2023/02/11 11:24:22;;;;;;;36.23;21.52;;;;;;;3.46;55.31;101194.09;1749806;82;21164;-82
2023/02/11 11:27:30;;;;;;;40.78;22.62;;;;;;;3.47;55.10;101188.56;1748844;82;21176;-83
2023/02/11 11:30:42;;;;;;;36.73;22.22;;;;;;;3.51;55.08;101185.16;1749697;82;21315;-82
2023/02/11 11:33:50;;;;;;;37.55;21.62;;;;;;;3.54;54.85;101179.05;1734169;82;21192;-82
2023/02/11 11:36:55;;;;;;;39.60;23.32;;;;;;;3.57;54.93;101177.95;1749754;82;21204;-81
2023/02/11 11:40:15;;;;;;;42.20;23.85;;;;;;;3.75;54.57;101159.03;1749808;82;21236;-81
2023/02/11 11:43:24;;;;;;;37.80;22.65;;;;;;;3.99;54.32;101163.63;1749689;82;21584;-82
2023/02/11 11:46:41;;;;;;;40.98;21.55;;;;;;;4.05;54.27;101160.48;1749899;82;21204;-82
2023/02/11 11:50:23;;;;;;;41.60;23.25;;;;;;;4.04;54.18;101165.50;1749754;80;21171;-82
2023/02/11 11:53:33;;;;;;;43.13;24.00;;;;;;;4.00;54.14;101165.34;1749461;82;21201;-82
2023/02/11 11:56:48;;;;;;;41.30;22.80;;;;;;;4.07;53.83;101153.09;1749757;82;21188;-81
2023/02/11 11:59:54;;;;;;;32.75;20.82;;;;;;;4.04;54.00;101158.73;1748785;81;21801;-82
2023/02/11 12:03:49;;;;;;;35.33;21.95;;;;;;;4.03;53.95;101157.87;1749824;82;21161;-81
2023/02/11 12:07:02;;;;;;;34.27;21.52;;;;;;;4.13;53.52;101166.17;1749754;82;21220;-82
2023/02/11 12:10:46;;;;;;;39.53;22.48;;;;;;;3.89;54.01;101165.28;1749644;82;21730;-82
2023/02/11 12:14:31;;;;;;;37.05;22.02;;;;;;;3.78;54.25;101158.82;1734867;80;21725;-82
2023/02/11 12:17:58;;;;;;;40.50;21.77;;;;;;;3.78;54.21;101154.76;1749350;82;21259;-82
2023/02/11 12:21:30;;;;;;;37.15;21.48;;;;;;;3.45;54.86;101151.30;1749387;82;21208;-82
2023/02/11 12:25:20;;;;;;;39.90;23.57;;;;;;;3.42;54.97;101147.95;1747842;82;21164;-82
2023/02/11 12:29:00;;;;;;;44.45;24.70;;;;;;;3.30;55.54;101141.11;1749845;82;21197;-82
2023/02/11 12:32:38;;;;;;;45.30;26.27;;;;;;;3.44;55.64;101140.12;1748673;82;21208;-82
2023/02/11 12:36:18;;;;;;;36.10;21.90;;;;;;;3.55;55.68;101133.92;1749103;82;21228;-82
2023/02/11 12:39:48;;;;;;;;;;;;;;;3.66;55.75;101125.02;1752270;82;21141;-80
2023/02/11 12:43:16;;;;;;;32.60;17.23;;;;;;;3.56;56.11;101124.83;1749395;82;20189;-82
2023/02/11 12:46:41;;;;;;;38.25;21.97;;;;;;;3.24;56.81;101124.44;1749758;82;21267;-81
2023/02/11 12:49:55;;;;;;;36.73;22.15;;;;;;;3.36;56.70;101130.82;1749748;82;21226;-82
2023/02/11 12:53:19;;;;;;;32.78;20.60;;;;;;;3.26;57.30;101122.02;1749676;82;21145;-81
2023/02/11 12:57:01;;;;;;;35.15;21.50;;;;;;;3.36;57.34;101119.52;1747846;82;21196;-81
2023/02/11 13:00:24;;;;;;;35.40;21.33;;;;;;;3.39;57.32;101113.89;1745742;82;21260;-82
2023/02/11 13:03:37;;;;;;;41.28;24.82;;;;;;;3.25;57.49;101114.88;1744496;82;21149;-82
2023/02/11 13:06:47;;;;;;;44.67;25.12;;;;;;;3.46;57.23;101117.87;1744425;82;21228;-82
2023/02/11 13:10:07;;;;;;;41.70;24.52;;;;;;;3.62;56.98;101116.25;1743058;82;21705;-81
2023/02/11 13:13:32;;;;;;;40.05;24.23;;;;;;;3.53;57.52;101111.05;1743865;82;21197;-82
2023/02/11 13:16:52;;;;;;;36.73;21.90;;;;;;;3.59;57.07;101113.30;1744508;82;21593;-82
2023/02/11 13:20:03;;;;;;;47.03;26.05;;;;;;;3.59;57.04;101099.77;1744216;82;21181;-83
2023/02/11 13:23:34;;;;;;;36.98;23.70;;;;;;;3.55;57.20;101094.20;1743953;82;21733;-81
2023/02/11 13:27:16;;;;;;;46.20;26.17;;;;;;;3.56;57.38;101084.25;1743919;82;21212;-81
2023/02/11 13:30:45;;;;;;;38.75;23.55;;;;;;;3.44;57.78;101083.31;1743022;82;21168;-82
2023/02/11 13:33:49;;;;;;;48.30;26.52;;;;;;;3.33;58.29;101086.78;1724515;82;21145;-81
2023/02/11 13:37:03;;;;;;;40.05;23.57;;;;;;;3.32;58.36;101082.36;1743977;82;21765;-81
2023/02/11 13:40:16;;;;;;;39.95;23.27;;;;;;;3.49;58.18;101080.28;1744245;82;21157;-81
2023/02/11 13:43:27;;;;;;;46.18;26.42;;;;;;;3.77;57.61;101073.20;1744423;82;21738;-82
2023/02/11 13:46:33;;;;;;;43.33;25.68;;;;;;;3.37;58.38;101065.80;1743644;82;21221;-81
2023/02/11 13:49:47;;;;;;;38.23;22.82;;;;;;;3.36;58.83;101062.72;1743951;82;21780;-82
2023/02/11 13:52:53;;;;;;;43.38;25.25;;;;;;;3.42;58.56;101063.61;1742920;82;21690;-82
2023/02/11 13:56:15;;;;;;;41.40;25.30;;;;;;;3.23;58.84;101057.33;1743914;82;21264;-81
2023/02/11 13:59:37;;;;;;;43.50;26.00;;;;;;;3.31;58.92;101053.59;1726364;82;21848;-82
2023/02/11 14:09:52;;;;;;;48.02;29.00;;;;;;;3.38;58.74;101040.96;1690709;85;21192;-81
2023/02/11 14:13:31;;;;;;;48.75;28.70;;;;;;;3.55;58.69;101031.13;1680303;85;21165;-82
2023/02/11 14:16:32;;;;;;;48.58;28.50;;;;;;;3.47;58.66;101029.47;1687568;85;21211;-81
2023/02/11 14:19:50;;;;;;;51.55;29.85;;;;;;;3.16;59.72;101027.67;1690412;83;21189;-81
2023/02/11 14:22:56;;;;;;;52.85;29.00;;;;;;;3.09;59.96;101027.73;1680293;85;21216;-81
2023/02/11 14:26:28;;;;;;;45.35;27.22;;;;;;;3.18;59.73;101026.20;1690598;85;21212;-81
2023/02/11 14:29:54;;;;;;;57.45;28.05;;;;;;;3.21;59.56;101022.80;1690639;85;21200;-81
2023/02/11 14:33:28;;;;;;;47.20;27.15;;;;;;;2.83;60.84;101022.00;1688874;84;21192;-81
2023/02/11 14:36:55;;;;;;;56.80;27.95;;;;;;;2.98;60.81;101020.41;1671061;85;21274;-82
2023/02/11 14:40:18;;;;;;;45.80;27.65;;;;;;;2.70;61.58;101020.64;1690786;85;21192;-82
2023/02/11 14:43:38;;;;;;;51.85;28.20;;;;;;;2.77;61.54;101007.92;1690447;83;21220;-80
2023/02/11 14:46:43;;;;;;;47.13;27.45;;;;;;;2.71;61.71;101006.16;1680094;85;21841;-81
2023/02/11 14:49:49;;;;;;;50.17;28.70;;;;;;;2.70;61.98;101000.38;1690111;85;21749;-81
2023/02/11 14:52:56;;;;;;;49.10;27.22;;;;;;;2.66;61.97;100997.52;1690702;85;21192;-81
2023/02/11 14:56:01;;;;;;;55.08;29.63;;;;;;;2.67;62.08;100986.59;1688893;85;21235;-81
2023/02/11 14:59:06;;;;;;;47.43;25.97;;;;;;;2.63;62.45;100989.13;1690786;85;21223;-81